Time;durP1;ratioP1;P1;durP2;ratioP2;P2;SDS_P1;SDS_P2;PMS_P1;PMS_P2;Temp;Humidity;BMP_temperature;BMP_pressure;BME280_temperature;BME280_humidity;BME280_pressure;Samples;Min_cycle;Max_cycle;Signal;HPM_P1;HPM_P2
2023/06/06 00:00:53;;;;;;;11.00;6.43;;;14.30;99.90;;;;;;5078587;28;20198;-60
2023/06/06 00:03:20;;;;;;;12.60;6.27;;;14.40;99.90;;;;;;5057508;28;20205;-60
2023/06/06 00:05:48;;;;;;;9.20;6.10;;;14.30;99.90;;;;;;5082390;28;20205;-60
2023/06/06 00:08:15;;;;;;;16.17;7.17;;;14.30;99.90;;;;;;5077641;28;20309;-60
2023/06/06 00:10:42;;;;;;;10.33;6.20;;;14.30;99.90;;;;;;5076178;28;20198;-60
2023/06/06 00:13:14;;;;;;;9.00;5.67;;;14.20;99.90;;;;;;5071905;28;20208;-60
2023/06/06 00:15:41;;;;;;;12.00;5.87;;;14.00;99.90;;;;;;5083234;28;20564;-60
2023/06/06 00:18:07;;;;;;;9.33;5.97;;;14.10;99.90;;;;;;5079457;28;20722;-60
2023/06/06 00:20:35;;;;;;;8.90;6.23;;;14.10;99.90;;;;;;5080625;28;20212;-60
2023/06/06 00:23:02;;;;;;;8.73;6.00;;;14.10;99.90;;;;;;5070372;28;20213;-59
2023/06/06 00:25:29;;;;;;;8.83;6.37;;;14.00;99.90;;;;;;5064741;28;20212;-60
2023/06/06 00:27:56;;;;;;;8.40;5.97;;;14.00;99.90;;;;;;5081203;28;20216;-60
2023/06/06 00:30:23;;;;;;;10.33;6.33;;;14.00;99.90;;;;;;5081401;28;20786;-60
2023/06/06 00:32:50;;;;;;;10.43;6.40;;;13.90;99.90;;;;;;5078079;28;22393;-60
2023/06/06 00:35:17;;;;;;;8.60;5.67;;;13.90;99.90;;;;;;5082622;28;20198;-60
2023/06/06 00:37:44;;;;;;;12.73;6.60;;;14.00;99.90;;;;;;5081369;28;20840;-60
2023/06/06 00:40:12;;;;;;;11.10;6.57;;;13.80;99.90;;;;;;5081716;28;20202;-60
2023/06/06 00:42:38;;;;;;;8.37;5.67;;;13.90;99.90;;;;;;5079458;28;20864;-61
2023/06/06 00:45:06;;;;;;;7.33;5.30;;;13.90;99.90;;;;;;5080419;28;20820;-62
2023/06/06 00:47:33;;;;;;;9.33;5.77;;;13.80;99.90;;;;;;5081694;28;20647;-60
2023/06/06 00:50:01;;;;;;;8.37;5.80;;;13.90;99.90;;;;;;5081529;28;20224;-60
2023/06/06 00:52:29;;;;;;;10.17;5.53;;;13.90;99.90;;;;;;5080583;28;20209;-60
2023/06/06 00:54:57;;;;;;;9.63;6.63;;;13.70;99.90;;;;;;5073993;28;20197;-60
2023/06/06 00:57:26;;;;;;;9.60;6.53;;;13.60;99.90;;;;;;5079829;28;20199;-62
2023/06/06 00:59:54;;;;;;;8.60;6.00;;;13.50;99.90;;;;;;5078391;28;20300;-60
2023/06/06 01:02:24;;;;;;;9.27;6.40;;;13.50;99.90;;;;;;5078589;28;20207;-61
2023/06/06 01:04:52;;;;;;;9.20;5.97;;;13.50;99.90;;;;;;5077071;28;20287;-60
2023/06/06 01:07:19;;;;;;;7.53;5.90;;;13.60;99.90;;;;;;5080456;28;20235;-60
2023/06/06 01:09:47;;;;;;;9.33;5.63;;;13.50;99.90;;;;;;5082843;28;20218;-60
2023/06/06 01:12:37;;;;;;;9.43;5.50;;;13.40;99.90;;;;;;5081733;28;20225;-60
2023/06/06 01:15:52;;;;;;;8.10;5.93;;;13.50;99.90;;;;;;5082128;28;20836;-60
2023/06/06 01:18:21;;;;;;;9.77;6.37;;;13.40;99.90;;;;;;5078354;28;20200;-60
2023/06/06 01:20:49;;;;;;;12.43;7.03;;;13.30;99.90;;;;;;5081257;28;20209;-60
2023/06/06 01:23:17;;;;;;;12.20;5.93;;;13.40;99.90;;;;;;5081160;28;20195;-62
2023/06/06 01:25:48;;;;;;;8.50;5.90;;;13.30;99.90;;;;;;5079977;28;20640;-60
2023/06/06 01:28:16;;;;;;;11.10;6.43;;;13.20;99.90;;;;;;5076075;28;20322;-60
2023/06/06 01:30:45;;;;;;;10.03;6.10;;;13.10;99.90;;;;;;5082829;28;20292;-60
2023/06/06 01:33:49;;;;;;;13.27;6.20;;;13.30;99.90;;;;;;5078628;28;20231;-60
2023/06/06 01:36:50;;;;;;;12.03;5.67;;;13.20;99.90;;;;;;5064722;28;20224;-60
2023/06/06 01:39:21;;;;;;;10.77;5.67;;;13.10;99.90;;;;;;5077051;28;20774;-61
2023/06/06 01:41:51;;;;;;;9.50;6.20;;;13.00;99.90;;;;;;5084209;28;20211;-60
2023/06/06 01:44:20;;;;;;;8.67;6.20;;;13.00;99.90;;;;;;5076671;28;20208;-60
2023/06/06 01:46:47;;;;;;;9.93;6.10;;;12.90;99.90;;;;;;5084625;28;20214;-60
2023/06/06 01:49:15;;;;;;;9.87;5.37;;;12.80;99.90;;;;;;5081514;28;20248;-60
2023/06/06 01:51:42;;;;;;;8.10;5.83;;;12.90;99.90;;;;;;5079288;28;20210;-60
2023/06/06 01:54:09;;;;;;;8.13;5.47;;;12.90;99.90;;;;;;5079537;28;20196;-60
2023/06/06 01:56:36;;;;;;;11.80;6.30;;;12.80;99.90;;;;;;5077329;28;20272;-60
2023/06/06 01:59:03;;;;;;;8.93;6.27;;;12.70;99.90;;;;;;5073370;28;20203;-60
2023/06/06 02:01:30;;;;;;;8.87;5.90;;;12.60;99.90;;;;;;5081576;28;20201;-60
2023/06/06 02:03:57;;;;;;;8.63;5.43;;;12.70;99.90;;;;;;5081916;28;21005;-60
2023/06/06 02:06:24;;;;;;;8.00;5.50;;;12.80;99.90;;;;;;5071906;28;20275;-60
2023/06/06 02:08:51;;;;;;;8.97;5.57;;;12.80;99.90;;;;;;5086766;28;20229;-60
2023/06/06 02:11:18;;;;;;;8.93;5.50;;;12.80;99.90;;;;;;5064715;28;20211;-59
2023/06/06 02:13:45;;;;;;;10.77;5.57;;;12.70;99.90;;;;;;5085459;28;20199;-59
2023/06/06 02:16:12;;;;;;;8.77;6.13;;;12.60;99.90;;;;;;5082005;28;20191;-59
2023/06/06 02:18:44;;;;;;;9.60;5.73;;;12.50;99.90;;;;;;5082256;28;20202;-60
2023/06/06 02:21:12;;;;;;;6.90;5.53;;;12.40;99.90;;;;;;5080595;28;20729;-59
2023/06/06 02:23:39;;;;;;;8.03;6.17;;;12.40;99.90;;;;;;5081221;28;20615;-60
2023/06/06 02:26:06;;;;;;;11.13;6.70;;;12.50;99.90;;;;;;5079112;28;20861;-60
2023/06/06 02:28:33;;;;;;;7.20;5.70;;;12.50;99.90;;;;;;5075935;28;20660;-67
2023/06/06 02:31:02;;;;;;;10.23;6.43;;;12.40;99.90;;;;;;5079806;28;20203;-62
2023/06/06 02:33:29;;;;;;;11.73;6.00;;;12.50;99.90;;;;;;5079288;28;20250;-60
2023/06/06 02:35:56;;;;;;;12.77;6.60;;;12.60;99.90;;;;;;5080532;28;20220;-58
2023/06/06 02:38:23;;;;;;;6.63;5.37;;;12.50;99.90;;;;;;5082478;28;20186;-60
2023/06/06 02:40:50;;;;;;;8.33;5.70;;;12.50;99.90;;;;;;5079906;28;20205;-59
2023/06/06 02:43:17;;;;;;;10.20;6.27;;;12.50;99.90;;;;;;5073452;28;20201;-59
2023/06/06 02:45:45;;;;;;;8.70;5.60;;;12.50;99.90;;;;;;5080481;28;20199;-59
2023/06/06 02:48:12;;;;;;;10.67;5.87;;;12.50;99.90;;;;;;5080237;28;20584;-60
2023/06/06 02:50:38;;;;;;;10.13;6.07;;;12.40;99.90;;;;;;5080407;28;20676;-59
2023/06/06 02:53:06;;;;;;;9.10;6.47;;;12.40;99.90;;;;;;5078695;28;20216;-59
2023/06/06 02:55:33;;;;;;;12.20;6.10;;;12.40;99.90;;;;;;5079276;28;20210;-59
2023/06/06 02:57:59;;;;;;;8.27;6.03;;;12.30;99.90;;;;;;5059515;28;20210;-59
2023/06/06 03:00:27;;;;;;;8.50;5.20;;;12.40;99.90;;;;;;5079242;28;20719;-59
2023/06/06 03:02:54;;;;;;;8.50;5.67;;;12.40;99.90;;;;;;5076675;28;20575;-59
2023/06/06 03:05:22;;;;;;;9.27;5.93;;;12.30;99.90;;;;;;5079498;28;20550;-59
2023/06/06 03:07:49;;;;;;;11.83;6.17;;;12.20;99.90;;;;;;5080090;28;20569;-60
2023/06/06 03:10:16;;;;;;;6.97;5.47;;;12.20;99.90;;;;;;5081513;28;20256;-60
2023/06/06 03:12:43;;;;;;;10.17;5.63;;;12.20;99.90;;;;;;5081591;28;20581;-60
2023/06/06 03:15:10;;;;;;;10.53;5.73;;;12.30;99.90;;;;;;5078590;28;20187;-59
2023/06/06 03:17:38;;;;;;;8.07;5.80;;;12.40;99.90;;;;;;5076477;28;20699;-59
2023/06/06 03:20:06;;;;;;;10.17;5.87;;;12.30;99.90;;;;;;5083004;28;20270;-59
2023/06/06 03:22:33;;;;;;;8.57;5.83;;;12.30;99.90;;;;;;5082535;28;20248;-59
2023/06/06 03:25:01;;;;;;;9.97;5.27;;;12.20;99.90;;;;;;5081097;28;20596;-60
2023/06/06 03:27:28;;;;;;;9.00;6.13;;;12.30;99.90;;;;;;5083423;28;20194;-59
2023/06/06 03:29:55;;;;;;;8.20;6.20;;;12.20;99.90;;;;;;5077654;28;20318;-59
2023/06/06 03:32:22;;;;;;;9.07;6.13;;;12.30;99.90;;;;;;5085351;28;20671;-59
2023/06/06 03:34:51;;;;;;;8.63;5.97;;;12.30;99.90;;;;;;5082406;28;20295;-59
2023/06/06 03:37:18;;;;;;;9.53;5.90;;;12.30;99.90;;;;;;5082492;28;20295;-60
2023/06/06 03:39:45;;;;;;;9.20;5.50;;;12.20;99.90;;;;;;5081559;28;20705;-59
2023/06/06 03:42:12;;;;;;;8.00;5.53;;;12.10;99.90;;;;;;5084237;28;21915;-59
2023/06/06 03:44:38;;;;;;;7.53;5.63;;;12.20;99.90;;;;;;5078091;28;20623;-59
2023/06/06 03:47:06;;;;;;;11.60;6.53;;;12.10;99.90;;;;;;5079971;28;20715;-59
2023/06/06 03:49:36;;;;;;;10.03;6.20;;;12.10;99.90;;;;;;5080591;28;20315;-60
2023/06/06 03:52:04;;;;;;;10.40;5.83;;;12.20;99.90;;;;;;5082585;28;20285;-60
2023/06/06 03:54:32;;;;;;;13.17;6.10;;;12.20;99.90;;;;;;5081130;28;20198;-59
2023/06/06 03:56:59;;;;;;;10.60;5.80;;;12.20;99.90;;;;;;5083341;28;20326;-59
2023/06/06 03:59:26;;;;;;;9.47;6.13;;;12.10;99.90;;;;;;5078694;28;22337;-59
2023/06/06 04:01:53;;;;;;;9.57;5.97;;;12.30;99.90;;;;;;5082603;28;20236;-61
2023/06/06 04:04:20;;;;;;;10.97;6.93;;;12.20;99.90;;;;;;5080197;28;20195;-59
2023/06/06 04:06:47;;;;;;;11.57;6.50;;;12.20;99.90;;;;;;5082496;28;20550;-59
2023/06/06 04:09:16;;;;;;;10.43;6.37;;;12.20;99.90;;;;;;5080084;28;20210;-59
2023/06/06 04:11:43;;;;;;;13.10;7.23;;;12.40;99.90;;;;;;5084310;28;20297;-60
2023/06/06 04:14:12;;;;;;;9.73;6.17;;;12.20;99.90;;;;;;5076594;28;20284;-60
2023/06/06 04:16:40;;;;;;;10.10;6.20;;;12.10;99.90;;;;;;5076455;28;20198;-59
2023/06/06 04:19:07;;;;;;;10.73;6.77;;;12.10;99.90;;;;;;5058334;28;20202;-59
2023/06/06 04:21:34;;;;;;;10.70;6.67;;;12.20;99.90;;;;;;5076805;28;20281;-59
2023/06/06 04:24:01;;;;;;;9.90;6.57;;;12.10;99.90;;;;;;5075837;28;20290;-59
2023/06/06 04:26:31;;;;;;;9.00;6.13;;;12.10;99.90;;;;;;5061499;28;20203;-59
2023/06/06 04:28:59;;;;;;;10.90;6.40;;;12.10;99.90;;;;;;5075917;28;20199;-60
2023/06/06 04:31:30;;;;;;;11.37;6.13;;;12.10;99.90;;;;;;5077475;28;20223;-59
2023/06/06 04:34:00;;;;;;;13.77;6.40;;;12.00;99.90;;;;;;5077530;28;20252;-59
2023/06/06 04:36:28;;;;;;;10.70;6.60;;;12.00;99.90;;;;;;5075668;28;20664;-63
2023/06/06 04:39:00;;;;;;;10.33;5.77;;;12.00;99.90;;;;;;5078305;28;20204;-59
2023/06/06 04:41:31;;;;;;;13.30;6.43;;;12.00;99.90;;;;;;5073950;28;20210;-60
2023/06/06 04:44:04;;;;;;;9.63;6.43;;;11.90;99.90;;;;;;5072517;28;20298;-59
2023/06/06 04:46:31;;;;;;;10.77;6.63;;;11.90;99.90;;;;;;5073707;28;20213;-61
2023/06/06 04:49:01;;;;;;;9.50;5.93;;;12.20;99.90;;;;;;5072054;28;20296;-61
2023/06/06 04:51:29;;;;;;;13.97;6.40;;;12.30;99.90;;;;;;5061345;28;20312;-61
2023/06/06 04:54:02;;;;;;;9.80;6.00;;;12.20;99.90;;;;;;5074945;28;20212;-61
2023/06/06 04:56:29;;;;;;;10.37;6.20;;;12.10;99.90;;;;;;5077120;28;20205;-61
2023/06/06 04:59:04;;;;;;;11.17;6.63;;;12.10;99.90;;;;;;5081042;28;20198;-62
2023/06/06 05:01:36;;;;;;;11.50;6.20;;;12.10;99.90;;;;;;5057686;28;21091;-61
2023/06/06 05:04:04;;;;;;;10.17;6.27;;;12.20;99.90;;;;;;5072088;28;20226;-61
2023/06/06 05:06:33;;;;;;;11.40;6.30;;;12.20;99.90;;;;;;5082505;28;20666;-59
2023/06/06 05:09:03;;;;;;;11.87;7.03;;;12.20;99.90;;;;;;5057310;28;20205;-60
2023/06/06 05:11:31;;;;;;;14.23;6.77;;;12.30;99.90;;;;;;5077022;28;20212;-59
2023/06/06 05:13:58;;;;;;;11.17;6.03;;;12.20;99.90;;;;;;5071892;28;20330;-59
2023/06/06 05:16:25;;;;;;;8.07;5.97;;;12.30;99.90;;;;;;5075402;28;20194;-59
2023/06/06 05:18:53;;;;;;;9.97;6.00;;;12.50;99.90;;;;;;5076652;28;20199;-60
2023/06/06 05:21:20;;;;;;;12.43;6.23;;;12.40;99.90;;;;;;5080372;28;20202;-60
2023/06/06 05:23:47;;;;;;;9.37;5.77;;;12.30;99.90;;;;;;5057962;28;20239;-60
2023/06/06 05:26:14;;;;;;;8.53;6.33;;;12.40;99.90;;;;;;5076414;28;20223;-61
2023/06/06 05:28:41;;;;;;;10.73;6.60;;;12.50;99.90;;;;;;5071917;28;20261;-60
2023/06/06 05:31:08;;;;;;;6.70;5.77;;;12.50;99.90;;;;;;5079282;28;20218;-60
2023/06/06 05:33:42;;;;;;;12.70;6.63;;;12.70;99.90;;;;;;5057013;28;20322;-59
2023/06/06 05:36:09;;;;;;;7.30;5.40;;;12.80;99.90;;;;;;5078515;28;20242;-59
2023/06/06 05:38:36;;;;;;;8.97;6.33;;;12.80;99.90;;;;;;5075917;28;20210;-63
2023/06/06 05:41:03;;;;;;;9.90;6.07;;;12.90;99.90;;;;;;5073252;28;20211;-59
2023/06/06 05:43:31;;;;;;;9.77;5.70;;;13.20;99.90;;;;;;5055285;28;20201;-59
2023/06/06 05:45:58;;;;;;;10.30;6.80;;;13.40;99.90;;;;;;5075976;28;20299;-60
2023/06/06 05:48:24;;;;;;;12.53;6.17;;;13.10;99.90;;;;;;5076892;28;20207;-59
2023/06/06 05:50:51;;;;;;;12.87;6.63;;;13.00;99.90;;;;;;5075618;28;20221;-60
2023/06/06 05:53:18;;;;;;;11.43;6.60;;;13.20;99.90;;;;;;5056439;28;20268;-59
2023/06/06 05:55:45;;;;;;;9.37;6.67;;;13.00;99.90;;;;;;5074389;28;20248;-64
2023/06/06 05:58:12;;;;;;;10.83;6.63;;;13.10;99.90;;;;;;5073783;28;21107;-59
2023/06/06 06:00:39;;;;;;;11.37;7.63;;;13.20;99.90;;;;;;5066743;28;20314;-59
2023/06/06 06:03:08;;;;;;;11.93;6.93;;;13.10;99.90;;;;;;5076683;28;20208;-59
2023/06/06 06:05:35;;;;;;;10.33;6.33;;;13.10;99.90;;;;;;5061362;28;20195;-59
2023/06/06 06:08:04;;;;;;;9.73;5.93;;;13.30;99.90;;;;;;5080444;28;20209;-59
2023/06/06 06:10:33;;;;;;;13.33;6.40;;;13.40;99.90;;;;;;5083143;28;20563;-60
2023/06/06 06:13:01;;;;;;;9.07;5.87;;;13.40;99.90;;;;;;5078213;28;20326;-59
2023/06/06 06:15:32;;;;;;;11.10;5.70;;;13.40;99.90;;;;;;5080660;28;20566;-61
2023/06/06 06:18:03;;;;;;;11.33;6.27;;;13.60;99.90;;;;;;5079273;28;20260;-60
2023/06/06 06:20:31;;;;;;;10.03;6.00;;;13.70;99.90;;;;;;5080753;28;20200;-60
2023/06/06 06:22:57;;;;;;;9.57;5.87;;;13.70;99.90;;;;;;5084919;28;20322;-59
2023/06/06 06:25:24;;;;;;;8.23;5.47;;;13.80;99.90;;;;;;5083930;28;20195;-59
2023/06/06 06:27:51;;;;;;;11.80;6.30;;;13.70;99.90;;;;;;5080368;28;20235;-59
2023/06/06 06:30:18;;;;;;;8.00;5.50;;;13.80;99.90;;;;;;5073238;28;20560;-59
2023/06/06 06:32:45;;;;;;;10.87;6.23;;;14.00;99.90;;;;;;5075627;28;20267;-61
2023/06/06 06:35:13;;;;;;;12.07;5.67;;;14.10;99.90;;;;;;5080816;28;20199;-62
2023/06/06 06:37:40;;;;;;;10.37;5.40;;;14.10;99.90;;;;;;5082806;28;20831;-62
2023/06/06 06:40:09;;;;;;;9.03;5.70;;;14.30;99.90;;;;;;5084807;28;20200;-62
2023/06/06 06:42:41;;;;;;;9.40;5.47;;;14.30;99.90;;;;;;5078631;28;20231;-62
2023/06/06 06:45:11;;;;;;;9.80;6.07;;;14.30;99.90;;;;;;4713450;28;10000024;-62
2023/06/06 06:47:43;;;;;;;11.97;6.27;;;14.30;99.90;;;;;;5047614;28;20199;-62
2023/06/06 06:50:11;;;;;;;11.70;5.93;;;14.60;99.90;;;;;;5074772;28;20272;-60
2023/06/06 06:52:38;;;;;;;9.70;5.83;;;14.90;99.90;;;;;;5079053;28;20193;-60
2023/06/06 06:55:05;;;;;;;8.77;5.53;;;14.80;99.90;;;;;;5072039;28;20218;-60
2023/06/06 06:57:33;;;;;;;9.00;5.77;;;15.00;99.90;;;;;;5076308;28;20346;-60
2023/06/06 07:00:23;;;;;;;7.23;5.80;;;14.90;99.90;;;;;;5074451;28;20623;-60
2023/06/06 07:02:53;;;;;;;9.40;5.57;;;14.90;99.90;;;;;;5078189;28;20303;-62
2023/06/06 07:05:21;;;;;;;9.07;6.03;;;15.20;99.90;;;;;;5074253;28;20207;-60
2023/06/06 07:07:50;;;;;;;8.77;5.17;;;15.50;99.90;;;;;;5074607;28;20205;-60
2023/06/06 07:10:17;;;;;;;8.50;5.73;;;15.50;99.90;;;;;;5071220;28;20277;-60
2023/06/06 07:12:48;;;;;;;9.30;6.07;;;15.90;99.90;;;;;;5069294;28;20198;-60
2023/06/06 07:15:20;;;;;;;12.30;6.13;;;15.50;99.90;;;;;;5078227;28;20206;-60
2023/06/06 07:17:49;;;;;;;8.73;5.70;;;15.90;99.90;;;;;;5077237;28;20304;-60
2023/06/06 07:20:19;;;;;;;8.27;5.73;;;16.30;99.90;;;;;;5075955;28;20192;-60
2023/06/06 07:22:47;;;;;;;9.27;6.00;;;16.30;99.90;;;;;;5080479;28;20229;-60
2023/06/06 07:25:14;;;;;;;9.53;5.47;;;16.10;99.90;;;;;;5080040;28;20270;-60
2023/06/06 07:27:41;;;;;;;9.40;5.87;;;16.30;99.90;;;;;;5078974;28;20274;-60
2023/06/06 07:30:13;;;;;;;9.00;5.67;;;16.50;99.90;;;;;;5080207;28;20268;-60
2023/06/06 07:32:42;;;;;;;7.03;5.67;;;16.30;99.90;;;;;;5083752;28;20225;-60
2023/06/06 07:35:16;;;;;;;10.90;6.13;;;16.20;99.90;;;;;;5081252;28;20197;-60
2023/06/06 07:37:44;;;;;;;8.23;5.63;;;16.50;99.90;;;;;;5062187;28;20230;-61
2023/06/06 07:40:11;;;;;;;7.20;5.70;;;16.80;99.90;;;;;;5082109;28;20247;-61
2023/06/06 07:42:42;;;;;;;9.03;5.13;;;16.60;99.90;;;;;;5079294;28;20201;-60
2023/06/06 07:45:10;;;;;;;10.73;5.80;;;16.30;99.90;;;;;;5082217;28;20666;-60
2023/06/06 07:47:39;;;;;;;8.73;5.20;;;16.70;99.90;;;;;;5080810;28;20256;-60
2023/06/06 07:50:06;;;;;;;8.63;5.80;;;17.10;99.90;;;;;;5084253;28;20208;-60
2023/06/06 07:52:34;;;;;;;7.07;5.17;;;17.10;99.90;;;;;;5086745;28;20230;-60
2023/06/06 07:55:04;;;;;;;12.07;6.07;;;17.30;99.90;;;;;;5080818;28;20198;-60
2023/06/06 07:57:31;;;;;;;9.97;5.43;;;17.40;99.90;;;;;;5059001;28;20277;-60
2023/06/06 07:59:58;;;;;;;7.97;5.60;;;17.30;99.90;;;;;;5083027;28;20201;-61
2023/06/06 08:02:26;;;;;;;8.37;5.47;;;17.30;99.90;;;;;;5081757;28;20206;-60
2023/06/06 08:04:53;;;;;;;8.90;5.50;;;17.20;99.90;;;;;;5081699;28;20214;-61
2023/06/06 08:07:20;;;;;;;11.97;6.00;;;17.40;99.90;;;;;;5082233;28;20657;-60
2023/06/06 08:09:47;;;;;;;8.50;6.07;;;17.10;99.90;;;;;;5081996;28;20692;-60
2023/06/06 08:12:14;;;;;;;8.77;5.97;;;17.40;99.90;;;;;;5081799;28;20265;-60
2023/06/06 08:14:41;;;;;;;10.57;6.03;;;17.80;99.90;;;;;;5081341;28;20325;-63
2023/06/06 08:17:08;;;;;;;7.97;6.40;;;17.90;99.90;;;;;;5080781;28;20194;-62
2023/06/06 08:19:35;;;;;;;11.20;5.57;;;18.20;99.90;;;;;;5043365;28;20205;-60
2023/06/06 08:22:03;;;;;;;8.57;5.73;;;18.50;99.90;;;;;;5081525;28;20218;-60
2023/06/06 08:24:30;;;;;;;8.57;6.00;;;18.50;99.90;;;;;;5062223;28;20583;-60
2023/06/06 08:26:57;;;;;;;9.80;5.30;;;18.90;99.90;;;;;;5083464;28;20309;-60
2023/06/06 08:29:24;;;;;;;7.40;5.60;;;19.10;99.90;;;;;;5079161;28;20209;-60
2023/06/06 08:31:53;;;;;;;8.30;5.80;;;18.90;99.90;;;;;;5080161;28;20213;-60
2023/06/06 08:34:24;;;;;;;8.20;6.10;;;19.50;99.90;;;;;;5060912;28;21287;-62
2023/06/06 08:36:51;;;;;;;12.17;6.10;;;19.60;99.90;;;;;;5079579;28;20230;-61
2023/06/06 08:39:18;;;;;;;12.10;5.50;;;19.70;99.90;;;;;;5064087;28;20647;-62
2023/06/06 08:41:50;;;;;;;7.50;5.53;;;19.00;99.90;;;;;;5080242;28;20231;-60
2023/06/06 08:44:22;;;;;;;9.77;6.03;;;19.30;99.90;;;;;;5076134;28;20202;-60
2023/06/06 08:46:53;;;;;;;7.63;5.87;;;18.80;99.90;;;;;;5063237;28;20290;-60
2023/06/06 08:49:20;;;;;;;9.37;5.83;;;19.20;99.90;;;;;;5077867;28;20216;-60
2023/06/06 08:51:48;;;;;;;9.87;6.20;;;19.60;99.90;;;;;;5062068;28;23557;-60
2023/06/06 08:54:18;;;;;;;12.20;6.20;;;19.20;99.90;;;;;;5077106;28;20202;-60
2023/06/06 08:56:55;;;;;;;9.90;7.13;;;19.20;99.90;;;;;;5071197;28;20198;-60
2023/06/06 08:59:22;;;;;;;6.93;6.23;;;19.70;99.90;;;;;;5069269;28;20284;-60
2023/06/06 09:01:53;;;;;;;9.00;6.00;;;20.20;99.90;;;;;;5084156;28;20214;-60
2023/06/06 09:04:20;;;;;;;8.60;5.70;;;20.40;99.90;;;;;;5086628;28;20202;-60
2023/06/06 09:06:50;;;;;;;11.20;5.57;;;20.90;99.90;;;;;;5063914;28;20203;-60
2023/06/06 09:09:19;;;;;;;9.37;6.20;;;21.10;99.90;;;;;;5085853;28;20611;-60
2023/06/06 09:11:46;;;;;;;10.93;5.50;;;21.10;99.90;;;;;;5085374;28;20237;-60
2023/06/06 09:14:13;;;;;;;9.50;6.53;;;20.80;99.90;;;;;;5085805;28;20226;-61
2023/06/06 09:16:41;;;;;;;10.60;7.67;;;20.20;99.90;;;;;;5082746;28;20229;-61
2023/06/06 09:19:08;;;;;;;8.97;6.53;;;20.30;99.90;;;;;;5086249;28;20199;-60
2023/06/06 09:21:36;;;;;;;7.77;5.63;;;20.30;99.90;;;;;;5087357;28;20202;-60
2023/06/06 09:24:04;;;;;;;8.57;5.77;;;20.50;99.90;;;;;;5085700;28;20207;-60
2023/06/06 09:26:33;;;;;;;10.13;6.17;;;21.10;99.90;;;;;;5069445;28;20202;-60
2023/06/06 09:29:07;;;;;;;8.90;6.00;;;21.00;99.90;;;;;;5087698;28;20858;-60
2023/06/06 09:31:38;;;;;;;8.90;6.13;;;20.50;99.90;;;;;;5085632;28;20253;-61
2023/06/06 09:34:08;;;;;;;8.57;6.40;;;20.60;99.90;;;;;;5087634;28;20221;-60
2023/06/06 09:36:41;;;;;;;9.87;6.20;;;21.30;99.90;;;;;;5080814;28;20269;-60
2023/06/06 09:39:15;;;;;;;10.10;6.03;;;21.40;99.90;;;;;;5066810;28;20234;-60
2023/06/06 09:41:46;;;;;;;9.83;5.63;;;21.50;99.90;;;;;;5084523;28;20194;-60
2023/06/06 09:44:18;;;;;;;7.23;6.30;;;21.50;99.90;;;;;;5086576;28;20203;-60
2023/06/06 09:46:45;;;;;;;8.63;6.03;;;21.20;99.90;;;;;;5083638;28;20653;-60
2023/06/06 09:49:15;;;;;;;8.70;6.47;;;21.30;99.90;;;;;;5081943;28;20293;-60
2023/06/06 09:51:43;;;;;;;9.30;6.27;;;21.00;99.90;;;;;;5069296;28;20635;-60
2023/06/06 09:54:11;;;;;;;8.37;6.07;;;21.00;99.90;;;;;;5079073;28;20202;-60
2023/06/06 09:56:42;;;;;;;11.47;6.50;;;21.00;99.90;;;;;;5082388;28;20536;-60
2023/06/06 09:59:12;;;;;;;12.77;6.93;;;20.60;99.90;;;;;;5087286;28;20198;-60
2023/06/06 10:01:42;;;;;;;9.97;6.10;;;20.80;99.90;;;;;;5082774;28;20209;-60
2023/06/06 10:04:10;;;;;;;8.83;5.40;;;21.10;99.90;;;;;;5083526;28;20233;-60
2023/06/06 10:06:43;;;;;;;11.47;6.60;;;21.20;99.90;;;;;;5086895;28;20198;-60
2023/06/06 10:09:11;;;;;;;9.37;5.80;;;21.30;99.90;;;;;;5088705;28;20198;-60
2023/06/06 10:11:39;;;;;;;9.20;6.40;;;21.50;99.90;;;;;;5088667;28;20605;-60
2023/06/06 10:14:06;;;;;;;10.50;6.77;;;21.70;99.90;;;;;;5090060;28;20199;-60
2023/06/06 10:16:35;;;;;;;9.37;5.67;;;21.90;99.90;;;;;;5088968;28;20667;-60
2023/06/06 10:19:03;;;;;;;8.23;5.43;;;21.70;99.90;;;;;;5090553;28;20206;-60
2023/06/06 10:21:31;;;;;;;8.37;6.00;;;21.30;99.90;;;;;;5090357;28;20295;-60
2023/06/06 10:23:58;;;;;;;9.10;5.57;;;21.60;99.90;;;;;;5087709;28;20268;-61
2023/06/06 10:26:42;;;;;;;10.73;6.27;;;22.00;99.90;;;;;;5090531;28;20236;-60
2023/06/06 10:29:19;;;;;;;8.03;6.20;;;21.80;99.90;;;;;;5086981;28;20205;-61
2023/06/06 10:31:56;;;;;;;10.77;5.83;;;21.40;99.90;;;;;;5088895;28;20210;-60
2023/06/06 10:34:30;;;;;;;9.23;6.10;;;21.20;99.90;;;;;;5090679;28;20716;-60
2023/06/06 10:37:14;;;;;;;7.60;5.37;;;21.20;99.90;;;;;;5088205;28;20289;-60
2023/06/06 10:39:47;;;;;;;8.43;5.87;;;21.20;99.90;;;;;;5089821;28;20563;-61
2023/06/06 10:42:15;;;;;;;10.23;5.87;;;21.60;99.90;;;;;;5082551;28;20205;-60
2023/06/06 10:44:45;;;;;;;11.40;5.70;;;21.50;99.90;;;;;;5090673;28;20615;-58
2023/06/06 10:47:20;;;;;;;8.63;5.53;;;22.30;99.90;;;;;;5082814;28;20207;-58
2023/06/06 10:50:21;;;;;;;8.57;5.67;;;21.90;99.90;;;;;;5079693;28;20207;-58
2023/06/06 10:53:15;;;;;;;7.87;5.73;;;22.20;99.90;;;;;;5038122;28;20720;-59
2023/06/06 10:55:45;;;;;;;8.00;5.27;;;22.00;99.90;;;;;;5085473;28;20206;-58
2023/06/06 10:58:31;;;;;;;7.80;5.53;;;22.30;99.90;;;;;;5082313;28;20191;-58
2023/06/06 11:01:07;;;;;;;11.30;6.53;;;22.80;99.90;;;;;;5047401;28;20209;-58
2023/06/06 11:03:39;;;;;;;9.30;5.73;;;23.00;99.90;;;;;;5087837;28;20233;-58
2023/06/06 11:06:11;;;;;;;6.93;4.83;;;23.10;99.90;;;;;;5089021;28;20203;-59
2023/06/06 11:08:48;;;;;;;7.83;5.17;;;23.20;99.90;;;;;;5090412;28;20203;-59
2023/06/06 11:11:15;;;;;;;7.43;5.10;;;23.40;99.90;;;;;;5089612;28;20218;-58
2023/06/06 11:13:53;;;;;;;7.77;4.40;;;23.40;99.90;;;;;;5089476;28;20207;-58
2023/06/06 11:16:49;;;;;;;6.73;5.23;;;23.70;99.90;;;;;;5078432;28;20284;-58
2023/06/06 11:19:19;;;;;;;6.60;4.93;;;23.50;99.90;;;;;;5089095;28;20302;-58
2023/06/06 11:21:48;;;;;;;7.47;4.70;;;23.40;99.90;;;;;;5081524;28;20202;-58
2023/06/06 11:24:21;;;;;;;8.87;4.70;;;23.20;99.90;;;;;;5086304;28;20295;-58
2023/06/06 11:26:51;;;;;;;7.23;4.70;;;23.70;99.90;;;;;;5086139;28;20672;-58
2023/06/06 11:29:22;;;;;;;9.67;5.17;;;23.70;99.90;;;;;;5086132;28;20204;-58
2023/06/06 11:31:49;;;;;;;6.80;4.93;;;23.90;99.90;;;;;;5067983;28;20214;-58
2023/06/06 11:34:16;;;;;;;6.23;5.27;;;24.30;99.90;;;;;;5089939;28;20753;-58
2023/06/06 11:36:45;;;;;;;8.13;4.77;;;24.10;99.90;;;;;;5090122;28;20189;-61
2023/06/06 11:39:13;;;;;;;6.73;5.27;;;24.20;99.90;;;;;;5089567;28;20295;-58
2023/06/06 11:41:41;;;;;;;9.23;4.80;;;24.30;99.90;;;;;;5087207;28;20210;-58
2023/06/06 11:44:08;;;;;;;9.67;5.23;;;23.80;99.90;;;;;;5090084;28;20560;-58
2023/06/06 11:46:49;;;;;;;7.83;5.23;;;23.70;99.90;;;;;;5084634;28;20195;-59
2023/06/06 11:49:19;;;;;;;6.03;4.20;;;23.90;99.90;;;;;;5086236;28;20202;-58
2023/06/06 11:52:00;;;;;;;7.93;4.67;;;24.20;99.90;;;;;;5081021;28;20229;-65
2023/06/06 11:54:28;;;;;;;10.20;5.20;;;24.40;99.90;;;;;;5079503;28;20248;-58
2023/06/06 11:57:02;;;;;;;8.63;4.73;;;24.20;99.90;;;;;;5078782;28;20471;-59
2023/06/06 11:59:30;;;;;;;7.30;4.83;;;24.40;99.90;;;;;;5079530;28;20196;-58
2023/06/06 12:01:58;;;;;;;9.00;4.43;;;25.10;99.90;;;;;;5079992;28;20229;-58
2023/06/06 12:04:27;;;;;;;7.93;4.37;;;25.20;99.90;;;;;;5061149;28;20233;-58
2023/06/06 12:06:56;;;;;;;7.90;5.53;;;24.90;99.90;;;;;;5072673;28;20205;-58
2023/06/06 12:09:26;;;;;;;9.93;4.80;;;24.60;99.90;;;;;;5071159;28;20925;-58
2023/06/06 12:11:55;;;;;;;6.40;4.97;;;24.50;99.90;;;;;;5072524;28;20233;-58
2023/06/06 12:14:25;;;;;;;7.40;4.57;;;24.40;99.90;;;;;;5050695;28;20197;-58
2023/06/06 12:17:00;;;;;;;8.43;4.73;;;24.60;99.90;;;;;;5069769;28;20568;-58
2023/06/06 12:19:27;;;;;;;5.10;4.30;;;24.40;99.90;;;;;;5069126;28;20311;-58
2023/06/06 12:21:54;;;;;;;10.00;5.00;;;24.80;99.90;;;;;;5069195;28;20292;-58
2023/06/06 12:24:23;;;;;;;10.53;4.67;;;25.00;99.90;;;;;;5077372;28;20248;-59
2023/06/06 12:26:59;;;;;;;7.87;4.57;;;24.70;99.90;;;;;;5078076;28;20209;-58
2023/06/06 12:29:30;;;;;;;8.20;4.40;;;24.60;99.90;;;;;;5078643;28;20624;-58
2023/06/06 12:32:16;;;;;;;6.77;3.87;;;25.10;99.90;;;;;;5076928;28;20257;-59
2023/06/06 12:34:48;;;;;;;6.03;4.03;;;25.40;99.90;;;;;;5077216;28;20570;-58
2023/06/06 12:37:16;;;;;;;9.13;3.90;;;25.50;99.90;;;;;;5076522;28;20321;-58
2023/06/06 12:39:44;;;;;;;7.67;3.70;;;25.40;99.90;;;;;;5080025;28;20223;-58
2023/06/06 12:42:19;;;;;;;6.67;3.87;;;25.80;99.90;;;;;;5081225;28;20198;-58
2023/06/06 12:44:46;;;;;;;7.77;4.43;;;25.10;99.90;;;;;;5078286;28;20193;-58
2023/06/06 12:47:15;;;;;;;6.23;4.60;;;25.10;99.90;;;;;;5072891;28;20580;-58
2023/06/06 12:49:43;;;;;;;9.47;4.37;;;25.00;99.90;;;;;;5053120;28;20195;-58
2023/06/06 12:52:11;;;;;;;7.57;4.07;;;25.20;99.90;;;;;;5079135;28;20242;-58
2023/06/06 12:54:41;;;;;;;6.03;4.43;;;25.50;99.90;;;;;;5072232;28;20210;-58